Time;durP1;ratioP1;P1;durP2;ratioP2;P2;SDS_P1;SDS_P2;PMS_P1;PMS_P2;Temp;Humidity;BMP_temperature;BMP_pressure;BME280_temperature;BME280_humidity;BME280_pressure;Samples;Min_cycle;Max_cycle;Signal;HPM_P1;HPM_P2
2023/04/17 00:00:15;;;;;;;31.98;24.05;;;;;;;8.29;100.00;102429.72;1033561;28;20313;-79
2023/04/17 00:00:49;;;;;;;40.90;25.48;;;;;;;8.28;100.00;102432.53;1035971;28;20301;-79
2023/04/17 00:01:20;;;;;;;38.75;26.80;;;;;;;8.23;100.00;102427.72;1039465;28;20288;-79
2023/04/17 00:01:54;;;;;;;36.08;26.27;;;;;;;8.26;100.00;102429.22;1043233;28;20299;-80
2023/04/17 00:02:28;;;;;;;36.85;26.98;;;;;;;8.23;100.00;102433.03;1042792;28;20865;-79
2023/04/17 00:03:00;;;;;;;36.88;26.23;;;;;;;8.18;100.00;102430.00;1041153;28;20291;-79
2023/04/17 00:03:32;;;;;;;35.10;26.02;;;;;;;8.20;100.00;102433.31;1037926;28;20292;-79
2023/04/17 00:04:09;;;;;;;35.95;25.50;;;;;;;8.21;100.00;102429.66;1035704;28;20314;-79
2023/04/17 00:04:41;;;;;;;36.92;25.58;;;;;;;8.15;100.00;102434.78;1042389;28;20856;-79
2023/04/17 00:05:15;;;;;;;37.88;27.25;;;;;;;8.16;100.00;102439.09;1044585;28;20303;-79
2023/04/17 00:05:47;;;;;;;40.20;26.25;;;;;;;8.07;100.00;102427.66;1041075;28;20898;-79
2023/04/17 00:06:19;;;;;;;40.28;26.25;;;;;;;8.15;100.00;102430.31;1040577;28;20299;-79
2023/04/17 00:06:52;;;;;;;35.67;26.63;;;;;;;8.18;100.00;102430.00;1039017;28;20303;-80
2023/04/17 00:07:27;;;;;;;36.00;25.05;;;;;;;8.14;100.00;102428.66;1040316;28;20322;-80
2023/04/17 00:07:58;;;;;;;39.15;27.75;;;;;;;8.20;100.00;102433.31;1041108;28;20861;-79
2023/04/17 00:08:31;;;;;;;36.72;25.60;;;;;;;8.23;100.00;102426.88;1041111;28;20314;-80
2023/04/17 00:09:03;;;;;;;35.10;26.33;;;;;;;8.25;100.00;102433.69;1041976;28;20330;-79
2023/04/17 00:09:35;;;;;;;38.20;27.42;;;;;;;8.24;100.00;102434.69;1041114;28;20338;-80
2023/04/17 00:10:08;;;;;;;42.00;26.60;;;;;;;8.22;100.00;102431.34;1039060;28;20291;-79
2023/04/17 00:10:39;;;;;;;33.35;24.67;;;;;;;8.18;100.00;102424.69;1040500;28;20304;-79
2023/04/17 00:11:11;;;;;;;35.03;26.23;;;;;;;8.18;100.00;102430.00;1041772;28;20342;-79
2023/04/17 00:11:42;;;;;;;42.53;26.77;;;;;;;7.99;100.00;102424.97;1040816;28;20307;-79
2023/04/17 00:12:14;;;;;;;37.10;25.63;;;;;;;8.08;100.00;102429.31;1035668;28;20304;-80
2023/04/17 00:12:46;;;;;;;34.83;25.45;;;;;;;8.17;100.00;102425.69;1031602;28;20765;-80
2023/04/17 00:13:18;;;;;;;38.05;25.83;;;;;;;8.23;100.00;102429.53;1031666;28;20301;-80
2023/04/17 00:13:49;;;;;;;37.25;25.80;;;;;;;8.17;100.00;102435.47;1033212;28;20313;-80
2023/04/17 00:14:21;;;;;;;35.40;26.17;;;;;;;8.10;100.00;102427.31;1035292;28;20293;-79
2023/04/17 00:14:52;;;;;;;38.85;27.52;;;;;;;8.14;100.00;102428.66;1039550;28;20358;-79
2023/04/17 00:15:24;;;;;;;36.92;25.15;;;;;;;8.21;100.00;102434.16;1042261;28;20287;-79
2023/04/17 00:15:56;;;;;;;35.08;26.35;;;;;;;8.18;100.00;102430.00;1041842;28;20303;-80
2023/04/17 00:16:27;;;;;;;42.92;26.15;;;;;;;8.18;100.00;102430.00;1034884;28;20301;-79
2023/04/17 00:16:59;;;;;;;38.25;26.17;;;;;;;8.16;100.00;102437.28;1030742;28;20388;-79
2023/04/17 00:17:30;;;;;;;35.95;25.55;;;;;;;8.11;100.00;102425.50;1030030;28;20305;-79
2023/04/17 00:18:02;;;;;;;36.33;26.42;;;;;;;8.13;100.00;102427.00;1025717;28;20301;-79
2023/04/17 00:18:34;;;;;;;35.00;24.73;;;;;;;8.19;100.00;102426.34;1038564;28;20312;-79
2023/04/17 00:19:05;;;;;;;38.58;26.83;;;;;;;8.12;100.00;102429.81;1043932;28;20295;-80
2023/04/17 00:19:37;;;;;;;30.83;24.08;;;;;;;8.17;100.00;102432.81;1047193;28;20302;-80
2023/04/17 00:20:09;;;;;;;37.15;25.92;;;;;;;8.19;100.00;102426.34;1047442;28;20657;-79
2023/04/17 00:20:41;;;;;;;37.25;26.42;;;;;;;8.19;100.00;102431.66;1047939;28;20322;-80
2023/04/17 00:21:13;;;;;;;36.17;25.55;;;;;;;8.21;100.00;102429.66;1042889;28;20300;-80
2023/04/17 00:21:44;;;;;;;35.78;25.50;;;;;;;8.24;100.00;102424.06;1040702;28;20638;-79
2023/04/17 00:22:16;;;;;;;36.63;25.45;;;;;;;8.23;100.00;102432.19;1043717;28;20917;-79
2023/04/17 00:22:47;;;;;;;37.17;27.25;;;;;;;8.21;100.00;102429.66;1044062;28;20295;-79
2023/04/17 00:23:19;;;;;;;37.95;27.42;;;;;;;8.18;100.00;102430.00;1040663;28;20339;-79
2023/04/17 00:23:51;;;;;;;36.60;25.90;;;;;;;8.22;100.00;102428.69;1046504;28;21241;-79
2023/04/17 00:24:22;;;;;;;38.25;25.70;;;;;;;8.21;100.00;102429.66;1044165;28;20322;-79
2023/04/17 00:24:54;;;;;;;40.95;24.85;;;;;;;8.16;100.00;102425.84;1043939;28;20310;-79
2023/04/17 00:25:26;;;;;;;31.98;23.63;;;;;;;8.12;100.00;102424.50;1046501;28;20824;-80
2023/04/17 00:25:57;;;;;;;39.85;26.55;;;;;;;8.09;100.00;102430.13;1046694;28;20294;-80
2023/04/17 00:26:31;;;;;;;35.42;26.30;;;;;;;8.05;100.00;102429.63;1044830;28;20299;-80
2023/04/17 00:27:02;;;;;;;34.95;24.75;;;;;;;8.03;100.00;102426.31;1041061;28;20316;-80
2023/04/17 00:27:34;;;;;;;28.83;24.02;;;;;;;8.12;100.00;102430.66;1038064;28;20303;-80
2023/04/17 00:28:06;;;;;;;37.63;26.73;;;;;;;8.15;100.00;102430.31;1031113;28;20312;-80
2023/04/17 00:28:37;;;;;;;35.60;23.98;;;;;;;8.06;100.00;102436.59;1034317;28;20751;-80
2023/04/17 00:29:09;;;;;;;36.85;26.20;;;;;;;8.08;100.00;102429.31;1032670;28;20691;-80
2023/04/17 00:29:41;;;;;;;35.78;24.98;;;;;;;8.09;100.00;102438.94;1041107;28;20782;-80
2023/04/17 00:30:13;;;;;;;39.42;26.75;;;;;;;8.09;100.00;102435.44;1040863;28;20307;-79
2023/04/17 00:30:45;;;;;;;35.58;25.30;;;;;;;8.15;100.00;102435.63;1038812;28;20300;-79
2023/04/17 00:31:17;;;;;;;35.88;26.45;;;;;;;8.19;100.00;102436.13;1046858;28;20305;-79
2023/04/17 00:31:48;;;;;;;35.55;25.85;;;;;;;8.18;100.00;102437.94;1039532;28;20725;-79
2023/04/17 00:32:20;;;;;;;34.97;26.30;;;;;;;8.14;100.00;102439.28;1036413;28;20383;-79
2023/04/17 00:32:52;;;;;;;39.08;26.77;;;;;;;8.02;100.00;102430.78;1035266;28;20304;-79
2023/04/17 00:33:24;;;;;;;36.05;25.83;;;;;;;8.04;100.00;102438.59;1035987;28;20300;-79
2023/04/17 00:33:57;;;;;;;37.85;27.17;;;;;;;8.17;100.00;102432.81;1040813;28;20288;-79
2023/04/17 00:34:29;;;;;;;36.53;25.55;;;;;;;8.13;100.00;102437.63;1038611;28;20301;-79
2023/04/17 00:35:01;;;;;;;35.78;25.70;;;;;;;8.18;100.00;102429.16;1047222;28;20313;-79
2023/04/17 00:35:32;;;;;;;37.90;24.77;;;;;;;8.16;100.00;102426.66;1046497;28;20283;-79
2023/04/17 00:36:04;;;;;;;36.20;24.70;;;;;;;8.16;100.00;102431.97;1048383;28;20652;-79
2023/04/17 00:36:36;;;;;;;31.58;24.23;;;;;;;8.20;100.00;102433.31;1044735;28;20303;-79
2023/04/17 00:37:08;;;;;;;35.30;25.08;;;;;;;8.21;100.00;102434.97;1043749;28;20303;-79
2023/04/17 00:37:39;;;;;;;30.90;22.83;;;;;;;8.10;100.00;102427.31;1037826;28;20644;-79
2023/04/17 00:38:12;;;;;;;39.65;26.77;;;;;;;8.04;100.00;102433.28;1038349;28;20307;-79
2023/04/17 00:38:43;;;;;;;33.17;25.67;;;;;;;8.12;100.00;102435.13;1035950;28;20297;-79
2023/04/17 00:39:15;;;;;;;31.42;24.75;;;;;;;8.18;100.00;102432.66;1038499;28;20311;-80
2023/04/17 00:39:46;;;;;;;37.28;25.65;;;;;;;8.17;100.00;102428.31;1041094;28;20303;-79
2023/04/17 00:40:18;;;;;;;34.63;25.88;;;;;;;8.10;100.00;102427.31;1036922;28;20376;-79
2023/04/17 00:40:50;;;;;;;36.05;25.52;;;;;;;8.06;100.00;102432.13;1032219;28;20853;-79
2023/04/17 00:41:22;;;;;;;35.97;25.33;;;;;;;8.07;100.00;102432.94;1036875;28;20304;-80
2023/04/17 00:41:53;;;;;;;33.28;25.63;;;;;;;8.15;100.00;102430.31;1040099;28;20300;-79
2023/04/17 00:42:25;;;;;;;34.60;26.30;;;;;;;8.13;100.00;102427.00;1044632;28;20287;-79
2023/04/17 00:43:02;;;;;;;36.38;26.40;;;;;;;8.14;100.00;102431.31;1040084;28;20667;-79
2023/04/17 00:43:33;;;;;;;37.90;25.27;;;;;;;8.16;100.00;102429.31;1035281;28;20300;-79
2023/04/17 00:44:05;;;;;;;38.00;24.55;;;;;;;8.19;100.00;102430.81;1035614;28;20379;-79
2023/04/17 00:44:37;;;;;;;34.85;25.73;;;;;;;8.13;100.00;102432.31;1037071;28;20312;-79
2023/04/17 00:45:10;;;;;;;33.90;26.10;;;;;;;8.25;100.00;102436.34;1035350;28;20399;-79
2023/04/17 00:45:41;;;;;;;36.47;24.60;;;;;;;8.21;100.00;102434.97;1036873;28;20368;-79
2023/04/17 00:46:14;;;;;;;32.58;25.45;;;;;;;8.20;100.00;102432.47;1039795;28;20853;-79
2023/04/17 00:46:45;;;;;;;33.55;25.60;;;;;;;8.24;100.00;102429.38;1036230;28;20311;-79
2023/04/17 00:47:17;;;;;;;34.17;24.80;;;;;;;8.23;100.00;102422.41;1039481;28;20721;-79
2023/04/17 00:47:50;;;;;;;35.45;24.55;;;;;;;8.22;100.00;102435.84;1036681;28;20300;-79
2023/04/17 00:48:23;;;;;;;40.55;24.48;;;;;;;8.19;100.00;102436.13;1040604;28;20287;-79
2023/04/17 00:48:54;;;;;;;36.63;26.20;;;;;;;8.15;100.00;102435.63;1039412;28;20315;-79
2023/04/17 00:49:26;;;;;;;33.15;24.40;;;;;;;8.06;100.00;102428.63;1040758;28;20292;-79
2023/04/17 00:49:58;;;;;;;33.90;24.92;;;;;;;8.05;100.00;102434.94;1037237;28;20794;-79
2023/04/17 00:50:30;;;;;;;36.30;26.42;;;;;;;8.11;100.00;102436.94;1036252;28;20814;-79
2023/04/17 00:51:02;;;;;;;34.45;23.90;;;;;;;8.11;100.00;102430.81;1039210;28;20304;-79
2023/04/17 00:51:34;;;;;;;30.63;23.73;;;;;;;8.04;100.00;102433.28;1042606;28;20300;-79
2023/04/17 00:52:06;;;;;;;40.63;26.83;;;;;;;7.98;100.00;102428.63;1041679;28;20378;-78
2023/04/17 00:52:37;;;;;;;40.40;27.60;;;;;;;7.98;100.00;102428.63;1043589;28;20315;-78
2023/04/17 00:53:10;;;;;;;37.08;26.13;;;;;;;7.99;100.00;102435.59;1034138;28;20368;-79
2023/04/17 00:53:42;;;;;;;40.47;26.45;;;;;;;8.00;100.00;102426.63;1035768;28;20315;-79
2023/04/17 00:54:13;;;;;;;35.45;26.00;;;;;;;7.98;100.00;102423.31;1033120;28;20293;-78
2023/04/17 00:54:45;;;;;;;35.92;27.48;;;;;;;7.96;100.00;102426.13;1032334;28;20652;-79
2023/04/17 00:55:17;;;;;;;35.80;26.80;;;;;;;7.97;100.00;102429.63;1027279;28;20313;-79
2023/04/17 00:55:50;;;;;;;38.03;26.02;;;;;;;7.95;100.00;102427.13;1030374;28;20510;-79
2023/04/17 00:56:21;;;;;;;40.67;27.13;;;;;;;7.99;100.00;102435.59;1031014;28;20641;-79
2023/04/17 00:56:53;;;;;;;34.00;26.58;;;;;;;7.99;100.00;102430.28;1032306;28;20759;-79
2023/04/17 00:57:25;;;;;;;38.58;27.48;;;;;;;7.92;100.00;102430.06;1036231;28;20304;-78
2023/04/17 00:57:57;;;;;;;41.08;27.90;;;;;;;7.87;100.00;102431.53;1034293;28;20306;-80
2023/04/17 00:58:29;;;;;;;36.20;27.25;;;;;;;7.92;100.00;102434.53;1028221;28;20301;-79
2023/04/17 00:59:02;;;;;;;40.15;25.98;;;;;;;7.86;100.00;102430.72;1032632;28;20305;-79
2023/04/17 00:59:35;;;;;;;35.30;26.23;;;;;;;7.84;100.00;102427.38;1041397;28;20311;-79
2023/04/17 01:00:08;;;;;;;39.28;26.63;;;;;;;7.87;100.00;102428.88;1045023;28;20342;-79
2023/04/17 01:00:40;;;;;;;39.58;28.10;;;;;;;7.88;100.00;102426.06;1040899;28;20296;-78
2023/04/17 01:01:12;;;;;;;37.17;27.92;;;;;;;7.88;100.00;102427.91;1039564;28;20817;-79
2023/04/17 01:01:44;;;;;;;41.50;28.42;;;;;;;7.85;100.00;102423.75;1036610;28;20300;-79
2023/04/17 01:02:17;;;;;;;35.05;24.85;;;;;;;7.86;100.00;102429.88;1035008;28;20297;-79
2023/04/17 01:02:49;;;;;;;40.90;28.73;;;;;;;7.88;100.00;102433.19;1036022;28;20300;-79
2023/04/17 01:03:21;;;;;;;38.13;27.90;;;;;;;7.90;100.00;102423.25;1034090;28;20323;-79
2023/04/17 01:03:53;;;;;;;36.33;27.23;;;;;;;7.88;100.00;102428.72;1028420;28;20354;-79
2023/04/17 01:04:26;;;;;;;39.15;27.90;;;;;;;7.93;100.00;102431.72;1027888;28;20309;-79
2023/04/17 01:04:58;;;;;;;40.65;27.58;;;;;;;7.91;100.00;102427.56;1035655;28;20352;-79
2023/04/17 01:05:30;;;;;;;36.97;27.60;;;;;;;7.92;100.00;102434.53;1033626;28;20309;-79
2023/04/17 01:06:02;;;;;;;40.88;27.33;;;;;;;7.94;100.00;102430.75;1035501;28;20876;-79
2023/04/17 01:06:35;;;;;;;41.30;29.67;;;;;;;7.92;100.00;102434.53;1036020;28;20300;-79
2023/04/17 01:07:06;;;;;;;37.97;28.75;;;;;;;7.96;100.00;102425.28;1035755;28;20495;-79
2023/04/17 01:07:40;;;;;;;42.42;28.15;;;;;;;7.97;100.00;102426.97;1035540;28;20818;-79
2023/04/17 01:08:11;;;;;;;33.90;25.55;;;;;;;7.91;100.00;102431.06;1035613;28;20304;-78
2023/04/17 01:08:43;;;;;;;41.55;27.13;;;;;;;7.88;100.00;102436.69;1025847;28;20306;-79
2023/04/17 01:09:15;;;;;;;37.80;27.10;;;;;;;7.88;100.00;102425.25;1034126;28;20331;-79
2023/04/17 01:09:47;;;;;;;38.47;27.02;;;;;;;7.88;100.00;102428.72;1032189;28;20351;-79
2023/04/17 01:10:19;;;;;;;36.45;26.60;;;;;;;7.88;100.00;102435.84;1033423;28;20340;-79
2023/04/17 01:10:50;;;;;;;41.38;29.45;;;;;;;7.92;100.00;102429.22;1036241;28;20296;-79
2023/04/17 01:11:22;;;;;;;37.72;27.45;;;;;;;7.92;100.00;102429.22;1038391;28;20334;-79
2023/04/17 01:11:53;;;;;;;36.40;27.48;;;;;;;7.95;100.00;102428.94;1038591;28;20305;-79
2023/04/17 01:12:25;;;;;;;35.65;28.27;;;;;;;7.92;100.00;102429.22;1035425;28;20809;-79
2023/04/17 01:13:05;;;;;;;37.72;28.60;;;;;;;7.85;100.00;102428.22;1031855;28;20301;-79
2023/04/17 01:13:47;;;;;;;37.13;26.63;;;;;;;7.86;100.00;102432.53;1032497;28;20686;-79
2023/04/17 01:14:19;;;;;;;34.03;26.13;;;;;;;7.85;100.00;102429.03;1034053;28;20046;-79
2023/04/17 01:14:52;;;;;;;36.92;26.45;;;;;;;7.92;100.00;102434.53;1037117;28;20300;-79
2023/04/17 01:15:24;;;;;;;42.83;29.15;;;;;;;7.87;100.00;102431.53;1039800;28;21029;-79
2023/04/17 01:15:55;;;;;;;36.90;29.00;;;;;;;7.87;100.00;102431.53;1041898;28;20635;-79
2023/04/17 01:16:29;;;;;;;38.20;27.15;;;;;;;7.83;100.00;102436.34;1043438;28;20296;-79
2023/04/17 01:17:01;;;;;;;40.33;26.17;;;;;;;7.84;100.00;102426.56;1035502;28;20304;-80
2023/04/17 01:17:33;;;;;;;34.08;25.55;;;;;;;7.80;100.00;102431.34;1034104;28;20468;-79
2023/04/17 01:18:05;;;;;;;42.05;29.00;;;;;;;7.85;100.00;102433.53;1029836;28;20305;-79
2023/04/17 01:18:37;;;;;;;41.13;31.05;;;;;;;7.84;100.00;102434.50;1029023;28;20310;-79
2023/04/17 01:19:09;;;;;;;37.80;29.13;;;;;;;7.82;100.00;102431.19;1031611;28;20353;-79
2023/04/17 01:19:41;;;;;;;35.72;27.70;;;;;;;7.88;100.00;102438.50;1036467;28;20302;-79
2023/04/17 01:20:13;;;;;;;40.65;27.42;;;;;;;7.91;100.00;102438.19;1040218;28;20308;-79
2023/04/17 01:20:45;;;;;;;39.75;27.63;;;;;;;7.94;100.00;102427.25;1041008;28;20790;-79
2023/04/17 01:21:18;;;;;;;36.17;27.13;;;;;;;7.96;100.00;102443.88;1039628;28;20395;-79
2023/04/17 01:21:50;;;;;;;39.13;27.83;;;;;;;7.89;100.00;102441.00;1035544;28;20671;-79
2023/04/17 01:22:21;;;;;;;37.80;26.48;;;;;;;7.88;100.00;102434.03;1038613;28;20332;-79
2023/04/17 01:22:58;;;;;;;36.40;26.23;;;;;;;7.88;100.00;102435.84;1036483;28;20399;-80
2023/04/17 01:23:42;;;;;;;36.17;26.38;;;;;;;7.79;100.00;102434.16;1039803;28;20304;-79
2023/04/17 01:24:13;;;;;;;36.63;26.85;;;;;;;7.74;100.00;102432.81;1031447;28;20313;-79
2023/04/17 01:24:46;;;;;;;37.47;27.83;;;;;;;7.87;100.00;102436.84;1037274;28;20300;-80
2023/04/17 01:25:18;;;;;;;42.33;26.98;;;;;;;7.87;100.00;102437.69;1033115;28;20703;-79
2023/04/17 01:25:50;;;;;;;37.80;27.00;;;;;;;7.89;100.00;102437.50;1035574;28;20309;-79
2023/04/17 01:26:22;;;;;;;36.25;28.40;;;;;;;7.94;100.00;102436.06;1033474;28;20683;-80
2023/04/17 01:26:55;;;;;;;37.10;28.20;;;;;;;7.97;100.00;102435.75;1027427;28;20309;-79
2023/04/17 01:27:27;;;;;;;38.20;26.98;;;;;;;8.00;100.00;102437.25;1030293;28;20833;-79
2023/04/17 01:27:59;;;;;;;35.70;26.45;;;;;;;7.99;100.00;102444.38;1032926;28;20443;-79
2023/04/17 01:28:32;;;;;;;39.63;27.60;;;;;;;7.91;100.00;102443.50;1035708;28;20703;-79
2023/04/17 01:29:04;;;;;;;35.15;26.33;;;;;;;7.87;100.00;102440.31;1039342;28;20307;-79
2023/04/17 01:29:35;;;;;;;37.47;26.33;;;;;;;7.90;100.00;102432.03;1040375;28;20303;-79
2023/04/17 01:30:07;;;;;;;30.42;24.35;;;;;;;7.95;100.00;102439.56;1039874;28;20383;-79
2023/04/17 01:30:46;;;;;;;36.22;25.58;;;;;;;7.98;100.00;102444.53;1034991;28;20660;-79
2023/04/17 01:31:18;;;;;;;36.47;26.42;;;;;;;8.00;100.00;102438.06;1036782;28;20378;-79
2023/04/17 01:31:50;;;;;;;36.97;27.20;;;;;;;7.99;100.00;102444.38;1035273;28;20727;-79
2023/04/17 01:32:22;;;;;;;32.17;25.23;;;;;;;7.90;100.00;102441.81;1036221;28;20308;-79
2023/04/17 01:32:54;;;;;;;33.70;23.10;;;;;;;7.84;100.00;102437.16;1035521;28;20802;-79
2023/04/17 01:33:26;;;;;;;36.35;24.95;;;;;;;7.98;100.00;102439.22;1034609;28;20379;-79
2023/04/17 01:33:59;;;;;;;37.03;26.35;;;;;;;7.99;100.00;102432.94;1035656;28;20670;-79
2023/04/17 01:34:31;;;;;;;32.38;26.13;;;;;;;8.00;100.00;102438.06;1031916;28;20377;-79
2023/04/17 01:35:03;;;;;;;35.55;25.33;;;;;;;8.02;100.00;102443.22;1037840;28;20355;-79
2023/04/17 01:35:34;;;;;;;35.60;26.63;;;;;;;7.96;100.00;102435.91;1034455;28;20387;-79
2023/04/17 01:36:06;;;;;;;35.05;26.38;;;;;;;7.93;100.00;102441.50;1039608;28;20677;-79
2023/04/17 01:36:38;;;;;;;38.17;26.70;;;;;;;7.89;100.00;102446.31;1039512;28;20813;-79
2023/04/17 01:37:09;;;;;;;33.63;25.40;;;;;;;7.83;100.00;102440.81;1036434;28;20728;-79
2023/04/17 01:37:41;;;;;;;35.75;25.42;;;;;;;7.81;100.00;102443.63;1038511;28;20288;-79
2023/04/17 01:38:13;;;;;;;32.75;25.75;;;;;;;7.79;100.00;102445.59;1031182;28;20305;-79
2023/04/17 01:38:45;;;;;;;33.67;25.35;;;;;;;7.89;100.00;102438.34;1034357;28;20688;-79
2023/04/17 01:39:16;;;;;;;41.88;28.05;;;;;;;7.85;100.00;102446.78;1035496;28;20312;-79
2023/04/17 01:39:48;;;;;;;35.85;25.20;;;;;;;7.84;100.00;102442.47;1032349;28;20350;-79
2023/04/17 01:40:20;;;;;;;37.05;26.88;;;;;;;7.98;100.00;102449.84;1035625;28;20297;-79
2023/04/17 01:40:52;;;;;;;36.38;26.90;;;;;;;8.00;100.00;102443.38;1027322;28;20356;-79
2023/04/17 01:41:23;;;;;;;39.80;27.85;;;;;;;7.95;100.00;102445.69;1028525;28;20294;-80
2023/04/17 01:41:55;;;;;;;34.88;26.23;;;;;;;7.88;100.00;102454.41;1023923;28;20314;-79
2023/04/17 01:42:27;;;;;;;36.08;24.70;;;;;;;7.98;100.00;102452.50;1028718;28;20332;-79
2023/04/17 01:42:58;;;;;;;33.72;26.77;;;;;;;7.96;100.00;102447.34;1033485;28;20358;-80
2023/04/17 01:43:30;;;;;;;33.40;25.58;;;;;;;7.97;100.00;102445.53;1033274;28;20297;-79
2023/04/17 01:44:01;;;;;;;32.88;25.30;;;;;;;7.91;100.00;102446.16;1036156;28;20303;-79
2023/04/17 01:44:33;;;;;;;38.08;25.45;;;;;;;8.02;100.00;102448.53;1038121;28;20307;-79
2023/04/17 01:45:05;;;;;;;33.75;24.45;;;;;;;7.98;100.00;102450.69;1031813;28;20297;-79
2023/04/17 01:45:37;;;;;;;35.67;24.70;;;;;;;7.96;100.00;102442.03;1036070;28;20822;-79
2023/04/17 01:46:09;;;;;;;33.03;25.92;;;;;;;7.87;100.00;102447.44;1039597;28;20300;-79
2023/04/17 01:46:41;;;;;;;36.47;26.70;;;;;;;7.96;100.00;102446.53;1040072;28;20324;-79
2023/04/17 01:47:12;;;;;;;33.28;24.77;;;;;;;7.97;100.00;102442.88;1039751;28;20713;-79
2023/04/17 01:47:44;;;;;;;31.83;24.73;;;;;;;8.02;100.00;102438.75;1036707;28;20308;-79
2023/04/17 01:48:16;;;;;;;36.13;25.00;;;;;;;8.00;100.00;102448.69;1033425;28;20308;-79
2023/04/17 01:48:47;;;;;;;33.60;26.05;;;;;;;7.98;100.00;102445.38;1035413;28;20297;-79
2023/04/17 01:49:19;;;;;;;33.00;25.42;;;;;;;7.93;100.00;102446.81;1031631;28;20818;-79
2023/04/17 01:49:51;;;;;;;35.78;25.40;;;;;;;8.00;100.00;102453.16;1031236;28;20301;-79
2023/04/17 01:50:22;;;;;;;32.88;24.92;;;;;;;7.95;100.00;102443.03;1034111;28;20305;-79
2023/04/17 01:50:54;;;;;;;33.53;27.23;;;;;;;7.90;100.00;102447.13;1031232;28;20305;-79
2023/04/17 01:51:26;;;;;;;34.35;24.80;;;;;;;7.95;100.00;102447.50;1034513;28;20336;-79
2023/04/17 01:51:58;;;;;;;36.25;25.73;;;;;;;7.87;100.00;102444.81;1037450;28;20315;-79
2023/04/17 01:52:30;;;;;;;34.78;25.67;;;;;;;7.87;100.00;102452.75;1036092;28;20316;-79
2023/04/17 01:53:01;;;;;;;35.58;26.67;;;;;;;7.88;100.00;102449.94;1041513;28;20310;-79
2023/04/17 01:53:33;;;;;;;38.17;27.00;;;;;;;7.87;100.00;102452.75;1041735;28;20300;-79
2023/04/17 01:54:05;;;;;;;37.22;28.15;;;;;;;7.83;100.00;102446.94;1041540;28;20678;-79
2023/04/17 01:54:36;;;;;;;34.42;24.55;;;;;;;7.77;100.00;102447.59;1040031;28;20312;-79
2023/04/17 01:55:08;;;;;;;37.17;26.63;;;;;;;7.81;100.00;102448.09;1040203;28;20841;-79
2023/04/17 01:55:40;;;;;;;37.08;24.83;;;;;;;7.85;100.00;102455.56;1044572;28;20302;-79
2023/04/17 01:56:12;;;;;;;32.72;25.27;;;;;;;7.78;100.00;102453.72;1044094;28;20303;-79
2023/04/17 01:56:44;;;;;;;35.88;24.30;;;;;;;7.79;100.00;102447.44;1048017;28;20286;-79
2023/04/17 01:57:15;;;;;;;38.13;26.05;;;;;;;7.81;100.00;102450.75;1040765;28;20310;-79
2023/04/17 01:57:48;;;;;;;34.33;26.02;;;;;;;7.73;100.00;102452.38;1043598;28;20310;-79
2023/04/17 01:58:20;;;;;;;36.30;24.98;;;;;;;7.67;100.00;102449.50;1039713;28;20292;-79
2023/04/17 01:58:52;;;;;;;31.63;26.30;;;;;;;7.75;100.00;102450.41;1034081;28;20336;-79
2023/04/17 01:59:24;;;;;;;33.78;25.90;;;;;;;7.84;100.00;102453.09;1034746;28;20297;-79
2023/04/17 01:59:55;;;;;;;35.15;26.27;;;;;;;7.87;100.00;102450.94;1031773;28;20316;-79
2023/04/17 02:00:28;;;;;;;37.95;24.92;;;;;;;7.89;100.00;102451.59;1033186;28;20425;-79
2023/04/17 02:01:00;;;;;;;35.90;25.30;;;;;;;7.80;100.00;102449.09;1032656;28;20882;-79
2023/04/17 02:01:31;;;;;;;35.60;25.63;;;;;;;7.81;100.00;102461.34;1036616;28;20318;-79
2023/04/17 02:02:03;;;;;;;33.15;26.25;;;;;;;7.67;100.00;102454.81;1034206;28;20301;-79
2023/04/17 02:02:35;;;;;;;34.38;24.27;;;;;;;7.72;100.00;102456.03;1036682;28;20327;-79
2023/04/17 02:03:06;;;;;;;35.47;24.40;;;;;;;7.80;100.00;102459.69;1035643;28;20607;-79
2023/04/17 02:03:38;;;;;;;34.30;24.88;;;;;;;7.79;100.00;102453.56;1038042;28;20294;-79
2023/04/17 02:04:10;;;;;;;32.88;23.45;;;;;;;7.73;100.00;102452.38;1037704;28;20315;-79
2023/04/17 02:04:42;;;;;;;34.78;26.05;;;;;;;7.78;100.00;102456.38;1035833;28;20338;-79
2023/04/17 02:05:13;;;;;;;31.45;26.05;;;;;;;7.82;100.00;102455.06;1039663;28;20338;-79
2023/04/17 02:05:47;;;;;;;33.80;25.02;;;;;;;7.79;100.00;102458.03;1037098;28;20293;-79
2023/04/17 02:06:19;;;;;;;30.85;25.42;;;;;;;7.80;100.00;102462.34;1041990;28;20305;-80
2023/04/17 02:06:51;;;;;;;34.22;25.25;;;;;;;7.72;100.00;102458.69;1039095;28;20308;-79
2023/04/17 02:07:22;;;;;;;36.13;25.63;;;;;;;7.66;100.00;102456.63;1039845;28;20431;-79
2023/04/17 02:07:54;;;;;;;35.05;25.60;;;;;;;7.72;100.00;102452.53;1040445;28;20662;-80
2023/04/17 02:08:26;;;;;;;29.58;23.70;;;;;;;7.88;100.00;102459.72;1047280;28;21515;-80
2023/04/17 02:08:58;;;;;;;36.78;26.17;;;;;;;7.89;100.00;102456.09;1039022;28;20303;-79
2023/04/17 02:09:29;;;;;;;33.08;25.70;;;;;;;7.96;100.00;102465.09;1039090;28;20311;-79
2023/04/17 02:10:01;;;;;;;36.70;25.65;;;;;;;7.93;100.00;102458.25;1038373;28;20634;-79
2023/04/17 02:10:33;;;;;;;30.63;25.17;;;;;;;7.94;100.00;102459.09;1036844;28;20320;-80
2023/04/17 02:11:05;;;;;;;34.85;25.88;;;;;;;7.90;100.00;102457.75;1039324;28;20385;-79
2023/04/17 02:11:36;;;;;;;38.33;25.77;;;;;;;7.91;100.00;102462.06;1039427;28;20422;-79
2023/04/17 02:12:08;;;;;;;30.42;24.35;;;;;;;7.87;100.00;102463.38;1042800;28;20300;-79
2023/04/17 02:12:39;;;;;;;35.33;25.80;;;;;;;7.88;100.00;102462.38;1043376;28;20299;-79
2023/04/17 02:13:11;;;;;;;31.17;23.20;;;;;;;7.87;100.00;102458.06;1043594;28;20291;-79
2023/04/17 02:13:45;;;;;;;34.60;25.02;;;;;;;7.83;100.00;102456.72;1039171;28;20634;-79
2023/04/17 02:14:16;;;;;;;32.50;24.33;;;;;;;7.84;100.00;102458.38;1036294;28;20350;-79
2023/04/17 02:14:48;;;;;;;37.03;25.67;;;;;;;7.91;100.00;102465.53;1034968;28;20293;-79
2023/04/17 02:15:21;;;;;;;35.40;24.92;;;;;;;7.84;100.00;102463.69;1034299;28;20699;-79
2023/04/17 02:15:52;;;;;;;34.40;24.63;;;;;;;7.80;100.00;102465.00;1032153;28;20301;-79
2023/04/17 02:16:24;;;;;;;33.67;25.33;;;;;;;7.80;100.00;102457.03;1035203;28;20296;-79
2023/04/17 02:16:56;;;;;;;35.50;25.27;;;;;;;7.88;100.00;102462.38;1037417;28;20318;-79
2023/04/17 02:17:28;;;;;;;35.03;26.58;;;;;;;7.80;100.00;102457.03;1040009;28;20296;-79
2023/04/17 02:18:00;;;;;;;32.95;24.52;;;;;;;7.85;100.00;102462.69;1047657;28;20302;-79
2023/04/17 02:18:32;;;;;;;34.03;25.58;;;;;;;7.72;100.00;102463.97;1043349;28;20860;-79
2023/04/17 02:19:04;;;;;;;36.35;25.63;;;;;;;7.67;100.00;102463.63;1043510;28;20860;-79
2023/04/17 02:19:35;;;;;;;35.08;24.70;;;;;;;7.79;100.00;102463.34;1043700;28;20295;-79
2023/04/17 02:20:07;;;;;;;35.65;25.73;;;;;;;7.75;100.00;102457.53;1038975;28;20299;-79
2023/04/17 02:20:39;;;;;;;35.88;26.20;;;;;;;7.68;100.00;102457.34;1040108;28;20297;-79
2023/04/17 02:21:10;;;;;;;40.97;25.02;;;;;;;7.75;100.00;102455.69;1040133;28;20292;-79
2023/04/17 02:21:42;;;;;;;34.63;25.83;;;;;;;7.73;100.00;102462.16;1040249;28;20718;-79
2023/04/17 02:22:14;;;;;;;32.47;25.17;;;;;;;7.65;100.00;102452.31;1038541;28;20415;-79
2023/04/17 02:22:46;;;;;;;33.00;23.85;;;;;;;7.74;100.00;102459.34;1035122;28;20643;-79
2023/04/17 02:23:17;;;;;;;35.08;26.67;;;;;;;7.86;100.00;102456.41;1037770;28;20296;-79
2023/04/17 02:23:49;;;;;;;33.72;24.63;;;;;;;7.86;100.00;102459.88;1038776;28;21627;-79
2023/04/17 02:24:21;;;;;;;38.60;25.33;;;;;;;7.84;100.00;102461.03;1042094;28;20296;-79
2023/04/17 02:24:52;;;;;;;34.70;25.23;;;;;;;7.81;100.00;102453.41;1047474;28;20305;-79
2023/04/17 02:25:24;;;;;;;33.58;24.95;;;;;;;7.81;100.00;102458.72;1040830;28;20291;-79
2023/04/17 02:25:56;;;;;;;40.30;26.42;;;;;;;7.71;100.00;102457.00;1040046;28;20299;-79